Time;durP1;ratioP1;P1;durP2;ratioP2;P2;SDS_P1;SDS_P2;PMS_P1;PMS_P2;Temp;Humidity;BMP_temperature;BMP_pressure;BME280_temperature;BME280_humidity;BME280_pressure;Samples;Min_cycle;Max_cycle;Signal;HPM_P1;HPM_P2
2022/11/20 00:01:31;;;;;;;;;;;;;;;20.81;30.30;97563.25;5013623;28;985;-73
2022/11/20 00:04:00;;;;;;;;;;;;;;;20.54;30.94;97574.16;5013880;28;950;-73
2022/11/20 00:06:26;;;;;;;;;;;;;;;20.52;30.86;97568.16;5013326;28;1962;-72
2022/11/20 00:08:52;;;;;;;;;;;;;;;20.98;30.20;97568.78;4997265;28;958;-73
2022/11/20 00:11:19;;;;;;;;;;;;;;;21.32;29.48;97566.13;4997042;28;1315;-73
2022/11/20 00:13:44;;;;;;;;;;;;;;;21.13;30.11;97552.97;5013518;28;966;-73
2022/11/20 00:16:10;;;;;;;;;;;;;;;21.25;29.63;97557.06;5013690;28;1006;-72
2022/11/20 00:18:36;;;;;;;;;;;;;;;20.88;30.24;97555.78;5013608;28;954;-73
2022/11/20 00:21:02;;;;;;;;;;;;;;;20.64;30.85;97558.91;5013531;28;1078;-73
2022/11/20 00:23:28;;;;;;;;;;;;;;;20.58;30.80;97574.84;5013644;28;1023;-73
2022/11/20 00:25:53;;;;;;;;;;;;;;;20.55;30.84;97567.25;5013491;28;1899;-72
2022/11/20 00:28:18;;;;;;;;;;;;;;;20.64;30.60;97558.13;5013873;28;1113;-73
2022/11/20 00:30:44;;;;;;;;;;;;;;;20.85;30.16;97568.78;5013319;28;1007;-73
2022/11/20 00:33:09;;;;;;;;;;;;;;;21.05;29.92;97560.09;5045770;28;958;-73
2022/11/20 00:35:35;;;;;;;;;;;;;;;20.79;30.33;97557.25;5055503;28;1025;-73
2022/11/20 00:38:00;;;;;;;;;;;;;;;20.95;30.27;97561.22;5055117;28;895;-73
2022/11/20 00:40:26;;;;;;;;;;;;;;;20.79;30.19;97568.56;5055064;28;860;-73
2022/11/20 00:42:51;;;;;;;;;;;;;;;20.79;30.20;97570.59;5055515;28;923;-72
2022/11/20 00:45:16;;;;;;;;;;;;;;;20.79;30.08;97570.59;5054905;28;994;-73
2022/11/20 00:47:42;;;;;;;;;;;;;;;21.20;29.62;97563.28;5058748;28;1926;-73
2022/11/20 00:50:07;;;;;;;;;;;;;;;21.01;29.96;97565.06;5058705;28;940;-73
2022/11/20 00:52:33;;;;;;;;;;;;;;;20.81;30.27;97568.88;5059061;28;1030;-73
2022/11/20 00:54:58;;;;;;;;;;;;;;;20.62;30.59;97581.16;5058846;28;947;-73
2022/11/20 00:57:24;;;;;;;;;;;;;;;20.84;30.35;97564.38;5058965;28;1023;-73
2022/11/20 00:59:49;;;;;;;;;;;;;;;20.57;30.49;97590.19;5023324;28;928;-73
2022/11/20 01:02:16;;;;;;;;;;;;;;;20.81;30.29;97585.84;5058905;28;1023;-73
2022/11/20 01:04:41;;;;;;;;;;;;;;;21.18;29.54;97586.34;5023812;28;992;-73
2022/11/20 01:07:07;;;;;;;;;;;;;;;21.10;29.61;97579.34;5058802;28;1906;-73
2022/11/20 01:09:32;;;;;;;;;;;;;;;20.85;30.06;97580.09;5058537;28;889;-73
2022/11/20 01:11:58;;;;;;;;;;;;;;;20.58;30.51;97580.50;5058326;28;951;-72
2022/11/20 01:14:24;;;;;;;;;;;;;;;20.77;30.28;97596.47;5058315;28;989;-73
2022/11/20 01:16:49;;;;;;;;;;;;;;;20.89;30.51;97580.00;5058826;28;978;-73
2022/11/20 01:19:16;;;;;;;;;;;;;;;21.01;29.77;97579.22;5058054;28;1167;-73
2022/11/20 01:21:42;;;;;;;;;;;;;;;21.05;29.89;97572.22;5058077;28;942;-72
2022/11/20 01:24:08;;;;;;;;;;;;;;;20.66;30.27;97583.91;5058108;28;901;-73
2022/11/20 01:26:34;;;;;;;;;;;;;;;20.88;29.91;97584.06;5058380;28;1906;-73
2022/11/20 01:28:59;;;;;;;;;;;;;;;20.63;30.31;97577.13;5057821;28;1114;-73
2022/11/20 01:31:26;;;;;;;;;;;;;;;20.63;30.28;97577.13;5058100;28;1256;-73
2022/11/20 01:33:52;;;;;;;;;;;;;;;20.72;30.27;97571.59;5058129;28;952;-73
2022/11/20 01:36:18;;;;;;;;;;;;;;;20.93;30.18;97563.69;5057936;28;925;-73
2022/11/20 01:38:43;;;;;;;;;;;;;;;21.10;29.55;97575.72;5058012;28;1006;-72
2022/11/20 01:41:09;;;;;;;;;;;;;;;20.75;30.01;97558.59;5057957;28;916;-73
2022/11/20 01:43:34;;;;;;;;;;;;;;;20.64;30.41;97564.56;5057695;28;976;-73
2022/11/20 01:46:15;;;;;;;;;;;;;;;20.75;30.28;97565.03;5057661;28;1967;-72
2022/11/20 01:48:55;;;;;;;;;;;;;;;20.55;30.38;97570.09;5058072;28;1107;-73
2022/11/20 01:51:24;;;;;;;;;;;;;;;20.60;30.19;97563.09;5064936;28;1073;-72
2022/11/20 01:53:49;;;;;;;;;;;;;;;21.13;29.60;97560.66;5077656;28;909;-72
2022/11/20 01:56:15;;;;;;;;;;;;;;;21.05;29.55;97560.09;5059496;28;994;-73
2022/11/20 01:58:42;;;;;;;;;;;;;;;20.91;29.49;97554.88;5060114;28;911;-73
2022/11/20 02:01:07;;;;;;;;;;;;;;;20.82;30.14;97547.06;5015334;28;973;-73
2022/11/20 02:03:33;;;;;;;;;;;;;;;20.64;30.27;97547.63;5015620;28;1008;-73
2022/11/20 02:06:07;;;;;;;;;;;;;;;20.69;29.98;97538.56;5015182;28;1910;-73
2022/11/20 02:08:33;;;;;;;;;;;;;;;21.09;29.76;97549.47;5015160;28;1153;-73
2022/11/20 02:10:58;;;;;;;;;;;;;;;20.92;29.67;97545.16;5015404;28;1030;-72
2022/11/20 02:16:08;;;;;;;;;;;;;;;20.63;30.30;97559.38;4995149;28;937;-73
2022/11/20 02:18:34;;;;;;;;;;;;;;;20.67;30.39;97551.56;5015429;28;1060;-73
2022/11/20 02:21:02;;;;;;;;;;;;;;;20.59;30.13;97562.31;5015057;28;1163;-73
2022/11/20 02:23:47;;;;;;;;;;;;;;;21.09;29.61;97557.97;5015266;28;947;-72
2022/11/20 02:26:13;;;;;;;;;;;;;;;20.90;30.12;97547.66;5014785;28;1907;-73
2022/11/20 02:28:38;;;;;;;;;;;;;;;20.91;29.60;97546.41;5015155;28;950;-72
2022/11/20 02:31:04;;;;;;;;;;;;;;;20.92;29.61;97550.81;5017009;28;1018;-73
2022/11/20 02:33:29;;;;;;;;;;;;;;;20.59;30.48;97542.50;5074039;28;919;-73
2022/11/20 02:35:54;;;;;;;;;;;;;;;20.66;30.08;97541.50;5075282;28;1128;-73
2022/11/20 02:38:20;;;;;;;;;;;;;;;21.00;29.88;97549.34;5076715;28;975;-73
2022/11/20 02:40:45;;;;;;;;;;;;;;;20.94;29.67;97542.69;5058851;28;1021;-72
2022/11/20 02:43:11;;;;;;;;;;;;;;;21.12;29.60;97537.25;5076458;28;910;-73
2022/11/20 02:45:36;;;;;;;;;;;;;;;20.67;30.10;97529.72;5076882;28;949;-73
2022/11/20 02:48:02;;;;;;;;;;;;;;;20.83;30.05;97526.06;5058754;28;1977;-72
2022/11/20 02:50:27;;;;;;;;;;;;;;;20.59;30.04;97516.28;5076605;28;931;-73
2022/11/20 02:52:53;;;;;;;;;;;;;;;20.71;30.03;97523.97;5076499;28;978;-73
2022/11/20 02:55:18;;;;;;;;;;;;;;;20.86;29.82;97519.47;5076696;28;938;-73
2022/11/20 02:57:43;;;;;;;;;;;;;;;21.02;29.66;97527.84;5076521;28;842;-73
2022/11/20 03:00:09;;;;;;;;;;;;;;;21.09;29.31;97521.19;5076423;28;864;-73
2022/11/20 03:02:35;;;;;;;;;;;;;;;20.62;30.30;97510.50;5076399;28;1017;-73
2022/11/20 03:05:00;;;;;;;;;;;;;;;20.70;29.96;97517.53;5075996;28;931;-73
2022/11/20 03:07:26;;;;;;;;;;;;;;;20.85;29.76;97505.78;5076270;28;1978;-73
2022/11/20 03:09:51;;;;;;;;;;;;;;;20.65;30.37;97508.81;5040652;28;893;-72
2022/11/20 03:12:16;;;;;;;;;;;;;;;20.95;29.84;97504.66;5076400;28;941;-73
2022/11/20 03:14:42;;;;;;;;;;;;;;;21.18;29.57;97535.41;5076009;28;1128;-73
2022/11/20 03:17:07;;;;;;;;;;;;;;;21.04;30.09;97510.44;5076677;28;1034;-73
2022/11/20 03:19:34;;;;;;;;;;;;;;;20.75;30.34;97514.16;5076313;28;1017;-73
2022/11/20 03:22:00;;;;;;;;;;;;;;;20.72;30.40;97520.69;5041081;28;902;-73
2022/11/20 03:24:25;;;;;;;;;;;;;;;20.86;30.23;97524.34;5058210;28;851;-73
2022/11/20 03:26:51;;;;;;;;;;;;;;;20.65;30.38;97518.09;5057921;28;1898;-73
2022/11/20 03:29:16;;;;;;;;;;;;;;;21.25;29.60;97523.88;5040489;28;964;-72
2022/11/20 03:31:42;;;;;;;;;;;;;;;20.96;29.90;97524.00;5075774;28;954;-73
2022/11/20 03:34:07;;;;;;;;;;;;;;;20.97;29.77;97524.78;5057908;28;944;-73
2022/11/20 03:36:33;;;;;;;;;;;;;;;20.68;30.35;97508.72;5057982;28;949;-73
2022/11/20 03:38:58;;;;;;;;;;;;;;;20.55;30.47;97499.44;5058661;28;923;-73
2022/11/20 03:41:27;;;;;;;;;;;;;;;20.70;30.35;97509.06;5076171;28;1052;-73
2022/11/20 03:43:56;;;;;;;;;;;;;;;21.29;29.34;97501.13;5058344;28;973;-73
2022/11/20 03:46:22;;;;;;;;;;;;;;;21.06;29.65;97499.44;5076039;28;1902;-73
2022/11/20 03:48:47;;;;;;;;;;;;;;;20.83;30.04;97503.44;5058365;28;975;-73
2022/11/20 03:51:17;;;;;;;;;;;;;;;20.87;29.95;97503.28;5058279;28;908;-73
2022/11/20 03:53:44;;;;;;;;;;;;;;;20.71;30.42;97496.50;5075745;28;990;-72
2022/11/20 03:56:10;;;;;;;;;;;;;;;20.66;30.34;97494.22;5058239;28;949;-73
2022/11/20 03:58:41;;;;;;;;;;;;;;;20.76;30.54;97486.66;5075576;28;974;-73
2022/11/20 04:01:07;;;;;;;;;;;;;;;21.11;29.81;97473.44;5058373;28;875;-73
2022/11/20 04:03:33;;;;;;;;;;;;;;;21.01;29.68;97468.91;5058076;28;907;-74
2022/11/20 04:06:05;;;;;;;;;;;;;;;20.68;30.28;97466.31;5057910;28;1910;-74
2022/11/20 04:08:30;;;;;;;;;;;;;;;20.75;30.25;97463.25;5057687;28;856;-74
2022/11/20 04:10:56;;;;;;;;;;;;;;;20.78;30.22;97468.03;5075692;28;750;-74
2022/11/20 04:13:21;;;;;;;;;;;;;;;20.81;30.06;97455.78;5075318;28;892;-74
2022/11/20 04:15:47;;;;;;;;;;;;;;;21.04;29.75;97453.88;5075533;28;921;-74
2022/11/20 04:18:12;;;;;;;;;;;;;;;21.23;29.36;97452.00;5023366;28;1007;-74
2022/11/20 04:20:37;;;;;;;;;;;;;;;20.91;29.67;97447.41;5075888;28;1037;-74
2022/11/20 04:23:03;;;;;;;;;;;;;;;20.67;30.43;97439.28;5079308;28;921;-74
2022/11/20 04:25:28;;;;;;;;;;;;;;;20.71;30.23;97439.97;5079330;28;853;-74
2022/11/20 04:27:54;;;;;;;;;;;;;;;20.76;30.25;97441.44;5079259;28;1910;-74
2022/11/20 04:30:19;;;;;;;;;;;;;;;20.94;30.11;97440.88;5061591;28;949;-74
2022/11/20 04:32:45;;;;;;;;;;;;;;;21.11;29.58;97439.47;5067032;28;1220;-74
2022/11/20 04:35:10;;;;;;;;;;;;;;;20.93;29.81;97442.09;5070423;28;1130;-75
2022/11/20 04:37:36;;;;;;;;;;;;;;;20.91;29.73;97436.09;5050373;28;1252;-74
2022/11/20 04:40:01;;;;;;;;;;;;;;;20.86;30.01;97439.50;5056940;28;1171;-75
2022/11/20 04:42:30;;;;;;;;;;;;;;;20.64;30.13;97420.41;5059095;28;898;-73
2022/11/20 04:44:55;;;;;;;;;;;;;;;21.16;29.44;97436.06;5058741;28;942;-72
2022/11/20 04:47:21;;;;;;;;;;;;;;;21.06;29.56;97438.00;5074088;28;1965;-73
2022/11/20 04:49:46;;;;;;;;;;;;;;;21.04;29.35;97445.38;5058909;28;892;-73
2022/11/20 04:52:12;;;;;;;;;;;;;;;20.76;30.20;97442.22;5058995;28;1072;-72
2022/11/20 04:54:37;;;;;;;;;;;;;;;20.58;30.69;97453.31;5058851;28;919;-73
2022/11/20 04:57:03;;;;;;;;;;;;;;;20.52;30.57;97455.91;5058767;28;1057;-73
2022/11/20 04:59:28;;;;;;;;;;;;;;;20.79;30.26;97460.31;5056234;28;985;-73
2022/11/20 05:01:53;;;;;;;;;;;;;;;21.03;29.68;97455.09;5058775;28;897;-73
2022/11/20 05:04:19;;;;;;;;;;;;;;;21.10;29.53;97446.38;5073748;28;1158;-73
2022/11/20 05:06:45;;;;;;;;;;;;;;;20.81;30.33;97438.81;5058319;28;1974;-72
2022/11/20 05:09:11;;;;;;;;;;;;;;;20.74;30.14;97427.75;5058419;28;988;-73
2022/11/20 05:11:36;;;;;;;;;;;;;;;20.62;30.58;97414.41;5058418;28;957;-73
2022/11/20 05:14:02;;;;;;;;;;;;;;;20.67;30.17;97415.88;5058455;28;1047;-72
2022/11/20 05:16:27;;;;;;;;;;;;;;;21.00;29.68;97424.91;5058388;28;985;-73
2022/11/20 05:18:54;;;;;;;;;;;;;;;21.27;29.19;97442.16;5058294;28;926;-72
2022/11/20 05:21:19;;;;;;;;;;;;;;;20.88;30.10;97442.66;5056194;28;1256;-73
2022/11/20 05:23:45;;;;;;;;;;;;;;;20.81;29.99;97438.81;5058049;28;915;-72
2022/11/20 05:26:17;;;;;;;;;;;;;;;20.87;29.84;97446.75;5058367;28;1906;-73
2022/11/20 05:28:43;;;;;;;;;;;;;;;20.72;30.25;97444.34;5073488;28;1076;-72
2022/11/20 05:31:09;;;;;;;;;;;;;;;21.35;28.90;97450.41;5057758;28;911;-73
2022/11/20 05:33:35;;;;;;;;;;;;;;;21.38;29.19;97453.13;5057685;28;931;-73
2022/11/20 05:36:01;;;;;;;;;;;;;;;20.87;29.73;97452.41;5058050;28;948;-73
2022/11/20 05:38:26;;;;;;;;;;;;;;;20.77;30.21;97455.09;5057970;28;1066;-73
2022/11/20 05:40:51;;;;;;;;;;;;;;;20.53;30.31;97457.50;5057842;28;876;-73
2022/11/20 05:43:17;;;;;;;;;;;;;;;20.84;30.01;97453.31;5073242;28;1141;-73
2022/11/20 05:45:42;;;;;;;;;;;;;;;21.00;29.51;97456.00;5073463;28;963;-72
2022/11/20 05:48:08;;;;;;;;;;;;;;;20.69;30.02;97450.94;5057499;28;1905;-73
2022/11/20 05:50:33;;;;;;;;;;;;;;;20.54;30.39;97466.75;5055504;28;963;-73
2022/11/20 05:52:59;;;;;;;;;;;;;;;20.70;30.03;97461.00;5057248;28;966;-72
2022/11/20 05:55:25;;;;;;;;;;;;;;;20.50;30.45;97468.91;5058170;28;1111;-73
2022/11/20 05:57:51;;;;;;;;;;;;;;;20.63;30.32;97472.53;5055596;28;1033;-73
2022/11/20 06:00:17;;;;;;;;;;;;;;;20.93;29.84;97473.19;5057378;28;1115;-73
2022/11/20 06:02:42;;;;;;;;;;;;;;;20.94;29.68;97481.25;5057542;28;969;-73
2022/11/20 06:05:08;;;;;;;;;;;;;;;20.81;29.85;97471.97;5057192;28;955;-72
2022/11/20 06:07:33;;;;;;;;;;;;;;;20.79;30.00;97471.63;5057019;28;1975;-73
2022/11/20 06:09:59;;;;;;;;;;;;;;;20.46;30.47;97479.47;5057194;28;875;-73
2022/11/20 06:12:24;;;;;;;;;;;;;;;20.71;30.34;97493.66;5056941;28;941;-72
2022/11/20 06:14:50;;;;;;;;;;;;;;;21.29;29.25;97490.59;5056985;28;1148;-73
2022/11/20 06:17:15;;;;;;;;;;;;;;;21.20;29.58;97486.88;5056881;28;1070;-73
2022/11/20 06:19:40;;;;;;;;;;;;;;;20.74;30.07;97484.31;5038835;28;1464;-73
2022/11/20 06:22:06;;;;;;;;;;;;;;;20.69;30.05;97490.50;5056944;28;1015;-73
2022/11/20 06:24:31;;;;;;;;;;;;;;;20.85;29.88;97480.34;5056927;28;950;-73
2022/11/20 06:26:57;;;;;;;;;;;;;;;20.95;29.85;97488.47;5056531;28;1963;-73
2022/11/20 06:29:22;;;;;;;;;;;;;;;21.02;29.82;97491.06;5057182;28;1001;-73
2022/11/20 06:31:47;;;;;;;;;;;;;;;21.18;29.41;97492.97;5056663;28;887;-74
2022/11/20 06:34:13;;;;;;;;;;;;;;;20.73;29.92;97493.25;5056599;28;1150;-73
2022/11/20 06:36:38;;;;;;;;;;;;;;;20.83;29.99;97509.09;5056583;28;914;-73
2022/11/20 06:39:04;;;;;;;;;;;;;;;20.83;29.79;97503.44;5056768;28;925;-73
2022/11/20 06:41:29;;;;;;;;;;;;;;;20.87;30.25;97503.28;5056556;28;1173;-73
2022/11/20 06:43:55;;;;;;;;;;;;;;;21.14;29.74;97500.00;5056054;28;952;-73
2022/11/20 06:46:20;;;;;;;;;;;;;;;20.97;29.43;97502.16;5054373;28;1963;-73
2022/11/20 06:48:46;;;;;;;;;;;;;;;20.75;30.02;97494.34;5056715;28;957;-73
2022/11/20 06:51:12;;;;;;;;;;;;;;;20.56;30.29;97501.00;5071771;28;1090;-73
2022/11/20 06:53:37;;;;;;;;;;;;;;;20.63;30.40;97500.81;5072052;28;1028;-73
2022/11/20 06:56:03;;;;;;;;;;;;;;;20.78;30.01;97507.59;5056270;28;924;-73
2022/11/20 06:58:29;;;;;;;;;;;;;;;20.95;29.94;97505.44;5056723;28;951;-73
2022/11/20 07:01:01;;;;;;;;;;;;;;;21.17;29.37;97499.88;5056514;28;889;-73
2022/11/20 07:03:26;;;;;;;;;;;;;;;20.64;30.20;97502.38;5071885;28;1953;-73
2022/11/20 07:05:54;;;;;;;;;;;;;;;20.86;29.70;97521.50;5038774;28;917;-73
2022/11/20 07:08:19;;;;;;;;;;;;;;;20.49;30.43;97506.88;5071475;28;1981;-73
2022/11/20 07:10:44;;;;;;;;;;;;;;;20.43;30.54;97514.31;5038570;28;917;-73
2022/11/20 07:13:10;;;;;;;;;;;;;;;20.88;29.89;97517.00;5056327;28;938;-73
2022/11/20 07:15:35;;;;;;;;;;;;;;;21.14;29.47;97528.28;5038459;28;936;-73
2022/11/20 07:18:01;;;;;;;;;;;;;;;20.77;30.09;97528.63;5056345;28;922;-73
2022/11/20 07:20:26;;;;;;;;;;;;;;;20.84;29.78;97530.44;5055872;28;1150;-74
2022/11/20 07:22:55;;;;;;;;;;;;;;;20.76;30.14;97520.59;5046994;28;1038;-73
2022/11/20 07:25:21;;;;;;;;;;;;;;;20.33;31.01;97523.88;5071270;28;923;-73
2022/11/20 07:27:47;;;;;;;;;;;;;;;20.43;30.94;97526.41;5038008;28;1911;-73
2022/11/20 07:30:13;;;;;;;;;;;;;;;20.86;30.02;97535.66;5020683;28;940;-73
2022/11/20 07:32:39;;;;;;;;;;;;;;;20.97;29.99;97527.63;5033156;28;1657;-73
2022/11/20 07:35:04;;;;;;;;;;;;;;;20.67;30.25;97531.78;5033479;28;1004;-73
2022/11/20 07:37:30;;;;;;;;;;;;;;;20.75;30.08;97531.13;5033393;28;1041;-74
2022/11/20 07:39:55;;;;;;;;;;;;;;;20.72;30.08;97528.38;5033417;28;1039;-73
2022/11/20 07:42:21;;;;;;;;;;;;;;;20.49;30.63;97541.59;5033571;28;1065;-73
2022/11/20 07:44:49;;;;;;;;;;;;;;;21.06;29.82;97533.41;5001646;28;1010;-73
2022/11/20 07:47:15;;;;;;;;;;;;;;;21.20;29.32;97527.28;5033205;28;1960;-73
2022/11/20 07:49:40;;;;;;;;;;;;;;;21.07;29.62;97532.16;5053384;28;968;-73
2022/11/20 07:52:06;;;;;;;;;;;;;;;21.22;29.42;97524.78;5053448;28;946;-73
2022/11/20 07:54:31;;;;;;;;;;;;;;;20.90;29.69;97530.69;5017572;28;1167;-73
2022/11/20 07:56:56;;;;;;;;;;;;;;;20.81;29.93;97520.81;5057594;28;1043;-73
2022/11/20 07:59:22;;;;;;;;;;;;;;;20.91;29.74;97526.59;5057587;28;993;-73
2022/11/20 08:01:47;;;;;;;;;;;;;;;20.69;30.10;97523.66;5057658;28;996;-73
2022/11/20 08:04:15;;;;;;;;;;;;;;;20.46;30.61;97519.84;5057422;28;1573;-73
2022/11/20 08:06:40;;;;;;;;;;;;;;;21.01;30.03;97525.47;5057341;28;1972;-73
2022/11/20 08:09:06;;;;;;;;;;;;;;;20.98;29.84;97521.50;5040903;28;965;-73
2022/11/20 08:14:15;;;;;;;;;;;;;;;20.74;30.29;97518.22;5059733;28;985;-73
2022/11/20 08:16:41;;;;;;;;;;;;;;;20.81;29.97;97518.00;5059159;28;1027;-73
2022/11/20 08:19:07;;;;;;;;;;;;;;;20.78;30.15;97530.22;5075222;28;920;-73
2022/11/20 08:21:33;;;;;;;;;;;;;;;20.48;30.37;97534.34;5057051;28;1237;-73
2022/11/20 08:23:58;;;;;;;;;;;;;;;20.73;30.20;97533.63;5059811;28;892;-73
2022/11/20 08:26:24;;;;;;;;;;;;;;;20.98;29.95;97532.03;5058932;28;1965;-73
2022/11/20 08:28:52;;;;;;;;;;;;;;;21.12;29.74;97534.41;5059577;28;890;-73
2022/11/20 08:31:18;;;;;;;;;;;;;;;20.74;30.13;97529.53;5074385;28;902;-73
2022/11/20 08:33:43;;;;;;;;;;;;;;;20.79;29.84;97537.47;5059019;28;946;-73
2022/11/20 08:36:08;;;;;;;;;;;;;;;20.54;30.36;97529.72;5059283;28;919;-73
2022/11/20 08:38:34;;;;;;;;;;;;;;;20.48;30.60;97533.56;5059236;28;937;-73
2022/11/20 08:43:43;;;;;;;;;;;;;;;21.03;29.64;97525.81;5056393;28;995;-73
2022/11/20 08:46:09;;;;;;;;;;;;;;;21.40;29.02;97523.44;5056775;28;1909;-73
2022/11/20 08:48:34;;;;;;;;;;;;;;;20.68;30.05;97520.03;5072960;28;984;-73
2022/11/20 08:51:00;;;;;;;;;;;;;;;20.66;30.31;97518.88;5039831;28;1547;-73
2022/11/20 08:53:26;;;;;;;;;;;;;;;20.60;30.39;97510.16;5073237;28;967;-73
2022/11/20 08:55:51;;;;;;;;;;;;;;;20.79;29.98;97520.50;5056415;28;1099;-73
2022/11/20 08:58:17;;;;;;;;;;;;;;;20.83;29.95;97514.72;5056144;28;921;-73
2022/11/20 09:00:43;;;;;;;;;;;;;;;19.50;30.00;97274.19;5073230;28;1026;-73
2022/11/20 09:03:08;;;;;;;;;;;;;;;20.74;29.78;97506.91;5056717;28;1028;-73
2022/11/20 09:05:33;;;;;;;;;;;;;;;20.62;30.24;97504.84;5072713;28;955;-73
2022/11/20 09:07:59;;;;;;;;;;;;;;;20.62;30.62;97510.50;5055119;28;1906;-73
2022/11/20 09:10:24;;;;;;;;;;;;;;;20.51;30.28;97510.81;5055869;28;945;-73
2022/11/20 09:12:51;;;;;;;;;;;;;;;20.30;30.79;97515.03;5055982;28;1064;-73
2022/11/20 09:15:17;;;;;;;;;;;;;;;21.18;29.29;97498.63;5039960;28;905;-73
2022/11/20 09:17:42;;;;;;;;;;;;;;;21.06;29.41;97511.56;5058049;28;954;-73
2022/11/20 09:20:08;;;;;;;;;;;;;;;20.81;29.79;97501.03;5058108;28;1013;-73
2022/11/20 09:22:33;;;;;;;;;;;;;;;20.77;29.90;97493.91;5056246;28;983;-73
2022/11/20 09:24:59;;;;;;;;;;;;;;;20.70;30.20;97492.09;5073737;28;902;-73
2022/11/20 09:27:24;;;;;;;;;;;;;;;20.72;30.25;97498.06;5058097;28;1970;-73
2022/11/20 09:29:50;;;;;;;;;;;;;;;20.80;30.12;97504.31;5058120;28;1055;-73
2022/11/20 09:32:16;;;;;;;;;;;;;;;21.11;29.54;97500.94;5058204;28;923;-73
2022/11/20 09:34:41;;;;;;;;;;;;;;;21.37;28.92;97493.22;5058147;28;1001;-73
2022/11/20 09:37:06;;;;;;;;;;;;;;;20.79;30.10;97494.25;5057970;28;937;-73
2022/11/20 09:39:32;;;;;;;;;;;;;;;20.98;29.86;97484.72;5057789;28;931;-73
2022/11/20 09:42:16;;;;;;;;;;;;;;;20.54;30.43;97481.69;5057447;28;979;-73
2022/11/20 09:44:48;;;;;;;;;;;;;;;20.85;29.87;97483.97;5057995;28;912;-74
2022/11/20 09:47:19;;;;;;;;;;;;;;;20.51;30.54;97470.47;5057592;28;1973;-73
2022/11/20 09:49:54;;;;;;;;;;;;;;;20.89;30.51;97472.53;5073532;28;895;-73
2022/11/20 09:52:26;;;;;;;;;;;;;;;20.79;30.19;97472.44;5057327;28;918;-73
2022/11/20 09:54:52;;;;;;;;;;;;;;;20.94;29.81;97464.28;5057955;28;940;-73
2022/11/20 09:57:18;;;;;;;;;;;;;;;21.00;29.76;97456.81;5073077;28;893;-73
2022/11/20 09:59:45;;;;;;;;;;;;;;;20.90;30.15;97452.28;5073165;28;927;-72
2022/11/20 10:02:23;;;;;;;;;;;;;;;20.88;30.14;97456.78;5072871;28;1198;-74
2022/11/20 10:04:52;;;;;;;;;;;;;;;20.61;30.61;97452.38;5057215;28;910;-74
2022/11/20 10:07:37;;;;;;;;;;;;;;;21.01;29.89;97460.41;5072616;28;1923;-74
2022/11/20 10:10:03;;;;;;;;;;;;;;;21.10;29.68;97466.19;5056881;28;933;-74
2022/11/20 10:12:33;;;;;;;;;;;;;;;20.96;29.81;97449.69;5057614;28;909;-74
2022/11/20 10:15:14;;;;;;;;;;;;;;;20.71;30.55;97450.47;5072882;28;984;-74
2022/11/20 10:18:04;;;;;;;;;;;;;;;20.48;30.77;97437.47;5052460;28;1248;-74
2022/11/20 10:20:33;;;;;;;;;;;;;;;20.53;30.51;97439.75;5019069;28;1277;-74
2022/11/20 10:23:16;;;;;;;;;;;;;;;20.40;31.04;97430.41;5037039;28;1004;-74
2022/11/20 10:25:41;;;;;;;;;;;;;;;21.00;29.70;97427.72;4987109;28;1587;-74
2022/11/20 10:28:09;;;;;;;;;;;;;;;21.28;29.30;97431.63;4995105;28;2223;-74
2022/11/20 10:30:38;;;;;;;;;;;;;;;20.86;30.00;97433.84;4995532;28;902;-74
2022/11/20 10:33:05;;;;;;;;;;;;;;;20.78;30.35;97428.44;4978989;28;945;-74
2022/11/20 10:35:49;;;;;;;;;;;;;;;20.43;30.82;97429.53;4995297;28;964;-73
2022/11/20 10:38:37;;;;;;;;;;;;;;;20.61;30.59;97429.78;4995405;28;961;-74
2022/11/20 10:43:47;;;;;;;;;;;;;;;21.14;29.59;97415.94;4937256;29;979;-73
2022/11/20 10:46:14;;;;;;;;;;;;;;;20.64;30.17;97414.75;4921138;29;1903;-74
2022/11/20 10:48:39;;;;;;;;;;;;;;;20.53;30.72;97415.09;4921474;29;989;-74
2022/11/20 10:51:08;;;;;;;;;;;;;;;20.54;30.70;97415.88;4936886;29;1038;-74
2022/11/20 10:53:48;;;;;;;;;;;;;;;20.64;30.59;97408.31;4937289;29;956;-74
2022/11/20 10:56:17;;;;;;;;;;;;;;;20.67;30.42;97411.00;4938683;28;1003;-74
2022/11/20 10:58:55;;;;;;;;;;;;;;;21.00;30.15;97405.09;4978772;28;1035;-73
2022/11/20 11:01:23;;;;;;;;;;;;;;;21.11;29.77;97416.06;4994909;28;1116;-73
2022/11/20 11:03:51;;;;;;;;;;;;;;;21.26;29.38;97412.28;4994907;28;958;-73
2022/11/20 11:06:22;;;;;;;;;;;;;;;20.58;30.62;97402.44;4978334;28;1960;-73
2022/11/20 11:08:47;;;;;;;;;;;;;;;20.35;31.05;97402.72;4994800;28;1104;-73
2022/11/20 11:11:32;;;;;;;;;;;;;;;20.78;30.19;97405.81;4978532;28;1011;-73
2022/11/20 11:14:12;;;;;;;;;;;;;;;21.03;29.85;97393.66;4994764;28;1006;-73
2022/11/20 11:16:48;;;;;;;;;;;;;;;21.35;29.22;97402.31;4994711;28;1090;-73
2022/11/20 11:19:14;;;;;;;;;;;;;;;20.67;30.39;97404.56;5050433;28;962;-73
2022/11/20 11:21:45;;;;;;;;;;;;;;;20.78;30.28;97405.03;5089779;28;1649;-73
2022/11/20 11:24:18;;;;;;;;;;;;;;;20.29;31.24;97411.75;5091689;28;939;-73
2022/11/20 11:26:50;;;;;;;;;;;;;;;20.42;30.71;97422.31;5091558;28;1898;-73
2022/11/20 11:29:17;;;;;;;;;;;;;;;20.43;30.70;97421.06;5074526;28;1601;-73
2022/11/20 11:31:42;;;;;;;;;;;;;;;21.45;29.13;97423.78;5091403;28;956;-73
2022/11/20 11:34:11;;;;;;;;;;;;;;;21.21;29.64;97418.53;5091864;28;897;-73
2022/11/20 11:36:36;;;;;;;;;;;;;;;20.91;29.98;97428.41;5091565;28;984;-73
2022/11/20 11:39:02;;;;;;;;;;;;;;;20.96;30.08;97432.72;5091689;28;900;-73
2022/11/20 11:41:31;;;;;;;;;;;;;;;20.92;30.14;97432.03;5058032;28;949;-73
2022/11/20 11:46:54;;;;;;;;;;;;;;;20.93;30.15;97442.88;5088753;28;1971;-73
2022/11/20 11:49:19;;;;;;;;;;;;;;;20.94;29.85;97440.88;5057634;28;959;-73
2022/11/20 11:51:56;;;;;;;;;;;;;;;21.11;29.46;97444.34;5091792;28;986;-73
2022/11/20 11:54:30;;;;;;;;;;;;;;;21.27;29.53;97442.16;5091711;28;950;-74
2022/11/20 11:56:55;;;;;;;;;;;;;;;20.99;29.85;97448.78;5091362;28;921;-73
2022/11/20 11:59:28;;;;;;;;;;;;;;;20.73;30.06;97451.63;5091156;28;971;-73
2022/11/20 12:01:58;;;;;;;;;;;;;;;20.57;30.39;97448.88;5091550;28;1163;-73
2022/11/20 12:04:28;;;;;;;;;;;;;;;20.55;30.49;97454.19;5091454;28;933;-73
2022/11/20 12:07:01;;;;;;;;;;;;;;;20.97;30.26;97452.03;5091285;28;1968;-73
2022/11/20 12:09:28;;;;;;;;;;;;;;;20.92;29.93;97452.63;5075826;28;877;-73
2022/11/20 12:11:54;;;;;;;;;;;;;;;21.25;29.47;97455.97;5091220;28;991;-74
2022/11/20 12:14:24;;;;;;;;;;;;;;;20.90;30.19;97443.00;5091403;28;917;-73
2022/11/20 12:16:50;;;;;;;;;;;;;;;20.87;30.29;97441.88;5091028;28;972;-73
2022/11/20 12:19:15;;;;;;;;;;;;;;;20.83;30.10;97446.88;5076291;28;1029;-73
2022/11/20 12:21:53;;;;;;;;;;;;;;;20.69;30.38;97445.28;5091022;28;1056;-74
2022/11/20 12:24:36;;;;;;;;;;;;;;;20.47;30.86;97435.91;5075617;28;943;-73
2022/11/20 12:27:02;;;;;;;;;;;;;;;20.87;30.30;97429.78;5075088;28;1905;-73
2022/11/20 12:29:46;;;;;;;;;;;;;;;21.36;29.36;97429.38;5075268;28;1165;-73
2022/11/20 12:32:22;;;;;;;;;;;;;;;20.67;30.12;97422.31;5075344;28;1039;-73
2022/11/20 12:34:53;;;;;;;;;;;;;;;20.71;30.34;97428.66;5091017;28;1085;-73
2022/11/20 12:37:22;;;;;;;;;;;;;;;20.66;30.58;97423.56;5075522;28;969;-73
2022/11/20 12:39:50;;;;;;;;;;;;;;;20.52;30.83;97432.47;5075156;28;941;-74
2022/11/20 12:45:32;;;;;;;;;;;;;;;21.15;29.75;97411.88;5036544;28;1005;-73
2022/11/20 12:48:16;;;;;;;;;;;;;;;20.98;29.73;97421.72;5020102;28;1906;-73
2022/11/20 12:51:01;;;;;;;;;;;;;;;20.86;30.10;97417.66;5052894;28;1136;-74
2022/11/20 12:53:45;;;;;;;;;;;;;;;20.55;30.90;97426.72;5036432;28;1047;-73
2022/11/20 12:56:32;;;;;;;;;;;;;;;20.49;30.80;97427.75;5036317;28;974;-74
2022/11/20 12:59:00;;;;;;;;;;;;;;;20.92;30.22;97426.38;5019914;28;1186;-74
2022/11/20 13:01:40;;;;;;;;;;;;;;;20.86;30.00;97423.31;5036336;28;1012;-73
2022/11/20 13:04:07;;;;;;;;;;;;;;;20.52;30.65;97426.84;5036174;28;943;-73
2022/11/20 13:06:33;;;;;;;;;;;;;;;20.59;30.62;97420.19;5019651;28;1942;-73
2022/11/20 13:08:58;;;;;;;;;;;;;;;20.57;30.57;97419.81;5036084;28;1039;-73
2022/11/20 13:11:37;;;;;;;;;;;;;;;20.61;30.80;97429.78;5003336;28;1181;-74
2022/11/20 13:14:05;;;;;;;;;;;;;;;20.62;30.65;97413.59;5019305;28;981;-73
2022/11/20 13:16:35;;;;;;;;;;;;;;;21.16;29.52;97413.44;5002984;28;1093;-74
2022/11/20 13:19:02;;;;;;;;;;;;;;;21.21;29.46;97421.34;5019531;28;1008;-73
2022/11/20 13:21:36;;;;;;;;;;;;;;;20.76;30.53;97413.16;5009646;28;1127;-73